sensor_id;sensor_type;location;lat;lon;timestamp;P1;durP1;ratioP1;P2;durP2;ratioP2
58470;SDS011;44258;51.288;12.068;2023-04-24T00:00:36;3.55;;;1.00;;
58470;SDS011;44258;51.288;12.068;2023-04-24T00:03:05;2.90;;;1.25;;
58470;SDS011;44258;51.288;12.068;2023-04-24T00:05:33;2.58;;;1.00;;
58470;SDS011;44258;51.288;12.068;2023-04-24T00:07:59;2.10;;;1.10;;
58470;SDS011;44258;51.288;12.068;2023-04-24T00:10:27;2.13;;;0.95;;
58470;SDS011;44258;51.288;12.068;2023-04-24T00:12:54;2.92;;;1.00;;
58470;SDS011;44258;51.288;12.068;2023-04-24T00:15:20;2.22;;;0.98;;
58470;SDS011;44258;51.288;12.068;2023-04-24T00:17:47;3.97;;;1.10;;
58470;SDS011;44258;51.288;12.068;2023-04-24T00:20:14;1.98;;;1.08;;
58470;SDS011;44258;51.288;12.068;2023-04-24T00:22:40;1.92;;;1.10;;
58470;SDS011;44258;51.288;12.068;2023-04-24T00:25:07;2.10;;;0.90;;
58470;SDS011;44258;51.288;12.068;2023-04-24T00:27:36;1.98;;;1.25;;
58470;SDS011;44258;51.288;12.068;2023-04-24T00:30:04;1.20;;;0.95;;
58470;SDS011;44258;51.288;12.068;2023-04-24T00:32:32;2.58;;;1.35;;
58470;SDS011;44258;51.288;12.068;2023-04-24T00:34:58;1.52;;;1.10;;
58470;SDS011;44258;51.288;12.068;2023-04-24T00:37:25;3.42;;;1.13;;
58470;SDS011;44258;51.288;12.068;2023-04-24T00:39:52;2.22;;;1.00;;
58470;SDS011;44258;51.288;12.068;2023-04-24T00:42:18;1.55;;;0.90;;
58470;SDS011;44258;51.288;12.068;2023-04-24T00:44:47;2.95;;;1.10;;
58470;SDS011;44258;51.288;12.068;2023-04-24T00:47:15;2.85;;;1.52;;
58470;SDS011;44258;51.288;12.068;2023-04-24T00:49:42;2.15;;;1.20;;
58470;SDS011;44258;51.288;12.068;2023-04-24T00:52:08;1.40;;;1.00;;
58470;SDS011;44258;51.288;12.068;2023-04-24T00:54:35;2.85;;;1.40;;
58470;SDS011;44258;51.288;12.068;2023-04-24T00:57:02;3.40;;;1.38;;
58470;SDS011;44258;51.288;12.068;2023-04-24T00:59:29;2.00;;;1.10;;
58470;SDS011;44258;51.288;12.068;2023-04-24T01:01:58;3.10;;;1.40;;
58470;SDS011;44258;51.288;12.068;2023-04-24T01:04:25;2.35;;;1.23;;
58470;SDS011;44258;51.288;12.068;2023-04-24T01:06:52;2.90;;;1.30;;
58470;SDS011;44258;51.288;12.068;2023-04-24T01:09:22;2.45;;;1.30;;
58470;SDS011;44258;51.288;12.068;2023-04-24T01:11:49;3.25;;;1.30;;
58470;SDS011;44258;51.288;12.068;2023-04-24T01:14:16;2.20;;;1.27;;
58470;SDS011;44258;51.288;12.068;2023-04-24T01:16:42;3.25;;;1.40;;
58470;SDS011;44258;51.288;12.068;2023-04-24T01:19:10;2.35;;;1.30;;
58470;SDS011;44258;51.288;12.068;2023-04-24T01:21:37;3.05;;;1.40;;
58470;SDS011;44258;51.288;12.068;2023-04-24T01:24:06;3.80;;;1.40;;
58470;SDS011;44258;51.288;12.068;2023-04-24T01:26:34;3.20;;;1.40;;
58470;SDS011;44258;51.288;12.068;2023-04-24T01:29:00;3.15;;;1.30;;
58470;SDS011;44258;51.288;12.068;2023-04-24T01:31:27;1.88;;;1.00;;
58470;SDS011;44258;51.288;12.068;2023-04-24T01:33:54;2.38;;;1.30;;
58470;SDS011;44258;51.288;12.068;2023-04-24T01:36:22;2.90;;;1.20;;
58470;SDS011;44258;51.288;12.068;2023-04-24T01:38:52;3.67;;;1.50;;
58470;SDS011;44258;51.288;12.068;2023-04-24T01:41:20;2.92;;;1.40;;
58470;SDS011;44258;51.288;12.068;2023-04-24T01:43:47;2.30;;;1.40;;
58470;SDS011;44258;51.288;12.068;2023-04-24T01:46:16;2.47;;;1.40;;
58470;SDS011;44258;51.288;12.068;2023-04-24T01:48:43;2.70;;;1.48;;
58470;SDS011;44258;51.288;12.068;2023-04-24T01:51:11;3.03;;;1.50;;
58470;SDS011;44258;51.288;12.068;2023-04-24T01:53:37;3.10;;;1.65;;
58470;SDS011;44258;51.288;12.068;2023-04-24T01:56:04;3.28;;;1.70;;
58470;SDS011;44258;51.288;12.068;2023-04-24T01:58:32;2.22;;;1.42;;
58470;SDS011;44258;51.288;12.068;2023-04-24T02:00:59;2.65;;;1.33;;
58470;SDS011;44258;51.288;12.068;2023-04-24T02:03:26;3.33;;;1.60;;
58470;SDS011;44258;51.288;12.068;2023-04-24T02:05:53;3.78;;;1.73;;
58470;SDS011;44258;51.288;12.068;2023-04-24T02:08:19;4.28;;;1.70;;
58470;SDS011;44258;51.288;12.068;2023-04-24T02:10:46;3.70;;;1.60;;
58470;SDS011;44258;51.288;12.068;2023-04-24T02:13:13;3.75;;;1.60;;
58470;SDS011;44258;51.288;12.068;2023-04-24T02:15:42;5.82;;;1.92;;
58470;SDS011;44258;51.288;12.068;2023-04-24T02:18:08;3.00;;;1.63;;
58470;SDS011;44258;51.288;12.068;2023-04-24T02:20:36;4.15;;;1.75;;
58470;SDS011;44258;51.288;12.068;2023-04-24T02:23:03;3.65;;;1.60;;
58470;SDS011;44258;51.288;12.068;2023-04-24T02:25:29;3.75;;;1.67;;
58470;SDS011;44258;51.288;12.068;2023-04-24T02:27:56;3.90;;;1.60;;
58470;SDS011;44258;51.288;12.068;2023-04-24T02:30:23;4.50;;;1.60;;
58470;SDS011;44258;51.288;12.068;2023-04-24T02:32:51;2.35;;;1.63;;
58470;SDS011;44258;51.288;12.068;2023-04-24T02:35:18;3.88;;;1.50;;
58470;SDS011;44258;51.288;12.068;2023-04-24T02:37:45;2.38;;;1.50;;
58470;SDS011;44258;51.288;12.068;2023-04-24T02:40:12;4.20;;;1.45;;
58470;SDS011;44258;51.288;12.068;2023-04-24T02:42:38;3.08;;;1.58;;
58470;SDS011;44258;51.288;12.068;2023-04-24T02:45:05;3.15;;;1.42;;
58470;SDS011;44258;51.288;12.068;2023-04-24T02:47:34;3.00;;;1.63;;
58470;SDS011;44258;51.288;12.068;2023-04-24T02:50:02;3.25;;;1.60;;
58470;SDS011;44258;51.288;12.068;2023-04-24T02:52:29;2.28;;;1.45;;
58470;SDS011;44258;51.288;12.068;2023-04-24T02:54:56;2.90;;;1.52;;
58470;SDS011;44258;51.288;12.068;2023-04-24T02:57:23;5.05;;;1.50;;
58470;SDS011;44258;51.288;12.068;2023-04-24T02:59:49;3.25;;;1.50;;
58470;SDS011;44258;51.288;12.068;2023-04-24T03:02:16;3.30;;;1.35;;
58470;SDS011;44258;51.288;12.068;2023-04-24T03:04:42;3.25;;;1.70;;
58470;SDS011;44258;51.288;12.068;2023-04-24T03:07:11;2.17;;;1.40;;
58470;SDS011;44258;51.288;12.068;2023-04-24T03:09:38;2.65;;;1.30;;
58470;SDS011;44258;51.288;12.068;2023-04-24T03:12:04;2.83;;;1.40;;
58470;SDS011;44258;51.288;12.068;2023-04-24T03:14:31;3.50;;;1.50;;
58470;SDS011;44258;51.288;12.068;2023-04-24T03:17:01;2.10;;;1.40;;
58470;SDS011;44258;51.288;12.068;2023-04-24T03:19:28;4.00;;;1.65;;
58470;SDS011;44258;51.288;12.068;2023-04-24T03:21:54;3.17;;;1.50;;
58470;SDS011;44258;51.288;12.068;2023-04-24T03:24:22;2.22;;;1.40;;
58470;SDS011;44258;51.288;12.068;2023-04-24T03:26:52;4.45;;;1.75;;
58470;SDS011;44258;51.288;12.068;2023-04-24T03:29:18;2.70;;;1.50;;
58470;SDS011;44258;51.288;12.068;2023-04-24T03:31:45;2.50;;;1.48;;
58470;SDS011;44258;51.288;12.068;2023-04-24T03:34:11;2.55;;;1.55;;
58470;SDS011;44258;51.288;12.068;2023-04-24T03:36:38;2.83;;;1.55;;
58470;SDS011;44258;51.288;12.068;2023-04-24T03:39:04;3.20;;;1.63;;
58470;SDS011;44258;51.288;12.068;2023-04-24T03:41:34;4.40;;;1.70;;
58470;SDS011;44258;51.288;12.068;2023-04-24T03:44:03;3.35;;;1.67;;
58470;SDS011;44258;51.288;12.068;2023-04-24T03:46:29;3.35;;;1.70;;
58470;SDS011;44258;51.288;12.068;2023-04-24T03:48:56;4.13;;;1.70;;
58470;SDS011;44258;51.288;12.068;2023-04-24T03:51:22;3.30;;;1.52;;
58470;SDS011;44258;51.288;12.068;2023-04-24T03:53:49;3.80;;;1.70;;
58470;SDS011;44258;51.288;12.068;2023-04-24T03:56:16;3.33;;;1.80;;
58470;SDS011;44258;51.288;12.068;2023-04-24T03:58:46;2.85;;;1.58;;
58470;SDS011;44258;51.288;12.068;2023-04-24T04:01:12;3.70;;;1.63;;
58470;SDS011;44258;51.288;12.068;2023-04-24T04:03:41;3.58;;;1.80;;
58470;SDS011;44258;51.288;12.068;2023-04-24T04:06:07;4.03;;;1.95;;
58470;SDS011;44258;51.288;12.068;2023-04-24T04:08:36;3.83;;;2.10;;
58470;SDS011;44258;51.288;12.068;2023-04-24T04:11:02;4.07;;;2.13;;
58470;SDS011;44258;51.288;12.068;2023-04-24T04:13:29;3.80;;;2.10;;
58470;SDS011;44258;51.288;12.068;2023-04-24T04:15:57;6.43;;;2.00;;
58470;SDS011;44258;51.288;12.068;2023-04-24T04:18:24;4.50;;;2.05;;
58470;SDS011;44258;51.288;12.068;2023-04-24T04:20:50;4.22;;;2.13;;
58470;SDS011;44258;51.288;12.068;2023-04-24T04:23:16;5.10;;;2.40;;
58470;SDS011;44258;51.288;12.068;2023-04-24T04:25:43;4.10;;;2.05;;
58470;SDS011;44258;51.288;12.068;2023-04-24T04:28:10;4.57;;;2.22;;
58470;SDS011;44258;51.288;12.068;2023-04-24T04:30:36;3.58;;;2.03;;
58470;SDS011;44258;51.288;12.068;2023-04-24T04:33:06;4.15;;;2.10;;
58470;SDS011;44258;51.288;12.068;2023-04-24T04:35:33;4.88;;;2.15;;
58470;SDS011;44258;51.288;12.068;2023-04-24T04:38:00;3.17;;;1.73;;
58470;SDS011;44258;51.288;12.068;2023-04-24T04:40:26;3.88;;;2.13;;
58470;SDS011;44258;51.288;12.068;2023-04-24T04:42:53;4.40;;;1.77;;
58470;SDS011;44258;51.288;12.068;2023-04-24T04:45:20;4.45;;;2.20;;
58470;SDS011;44258;51.288;12.068;2023-04-24T04:47:46;3.33;;;1.95;;
58470;SDS011;44258;51.288;12.068;2023-04-24T04:50:17;2.97;;;1.80;;
58470;SDS011;44258;51.288;12.068;2023-04-24T04:52:44;5.25;;;2.13;;
58470;SDS011;44258;51.288;12.068;2023-04-24T04:55:11;6.07;;;2.10;;
58470;SDS011;44258;51.288;12.068;2023-04-24T04:57:40;5.20;;;2.20;;
58470;SDS011;44258;51.288;12.068;2023-04-24T05:00:07;4.32;;;2.08;;
58470;SDS011;44258;51.288;12.068;2023-04-24T05:02:35;3.78;;;1.90;;
58470;SDS011;44258;51.288;12.068;2023-04-24T05:05:02;3.50;;;2.00;;
58470;SDS011;44258;51.288;12.068;2023-04-24T05:07:30;5.00;;;2.20;;
58470;SDS011;44258;51.288;12.068;2023-04-24T05:09:57;4.45;;;2.22;;
58470;SDS011;44258;51.288;12.068;2023-04-24T05:12:23;6.70;;;2.17;;
58470;SDS011;44258;51.288;12.068;2023-04-24T05:14:50;4.25;;;2.20;;
58470;SDS011;44258;51.288;12.068;2023-04-24T05:17:17;5.10;;;2.20;;
58470;SDS011;44258;51.288;12.068;2023-04-24T05:19:45;4.82;;;2.20;;
58470;SDS011;44258;51.288;12.068;2023-04-24T05:22:11;3.97;;;1.90;;
58470;SDS011;44258;51.288;12.068;2023-04-24T05:24:39;3.70;;;2.17;;
58470;SDS011;44258;51.288;12.068;2023-04-24T05:27:06;5.53;;;2.28;;
58470;SDS011;44258;51.288;12.068;2023-04-24T05:29:32;7.35;;;2.70;;
58470;SDS011;44258;51.288;12.068;2023-04-24T05:31:59;4.95;;;2.00;;
58470;SDS011;44258;51.288;12.068;2023-04-24T05:34:26;4.57;;;2.17;;
58470;SDS011;44258;51.288;12.068;2023-04-24T05:36:53;5.95;;;2.17;;
58470;SDS011;44258;51.288;12.068;2023-04-24T05:39:20;3.83;;;2.05;;
58470;SDS011;44258;51.288;12.068;2023-04-24T05:41:48;4.88;;;1.83;;
58470;SDS011;44258;51.288;12.068;2023-04-24T05:44:14;4.03;;;2.00;;
58470;SDS011;44258;51.288;12.068;2023-04-24T05:46:41;7.65;;;2.22;;
58470;SDS011;44258;51.288;12.068;2023-04-24T05:49:07;5.25;;;1.92;;
58470;SDS011;44258;51.288;12.068;2023-04-24T05:51:34;2.83;;;1.85;;
58470;SDS011;44258;51.288;12.068;2023-04-24T05:54:00;4.97;;;1.98;;
58470;SDS011;44258;51.288;12.068;2023-04-24T05:56:28;6.68;;;2.63;;
58470;SDS011;44258;51.288;12.068;2023-04-24T05:58:57;3.53;;;1.60;;
58470;SDS011;44258;51.288;12.068;2023-04-24T06:01:23;4.63;;;1.77;;
58470;SDS011;44258;51.288;12.068;2023-04-24T06:03:50;3.17;;;1.60;;
58470;SDS011;44258;51.288;12.068;2023-04-24T06:06:18;3.78;;;1.80;;
58470;SDS011;44258;51.288;12.068;2023-04-24T06:08:44;3.50;;;1.30;;
58470;SDS011;44258;51.288;12.068;2023-04-24T06:11:11;2.50;;;1.40;;
58470;SDS011;44258;51.288;12.068;2023-04-24T06:13:37;3.92;;;1.42;;
58470;SDS011;44258;51.288;12.068;2023-04-24T06:16:06;1.80;;;1.30;;
58470;SDS011;44258;51.288;12.068;2023-04-24T06:18:32;2.63;;;1.40;;
58470;SDS011;44258;51.288;12.068;2023-04-24T06:20:59;2.45;;;1.20;;
58470;SDS011;44258;51.288;12.068;2023-04-24T06:23:26;2.88;;;1.50;;
58470;SDS011;44258;51.288;12.068;2023-04-24T06:25:52;3.75;;;1.48;;
58470;SDS011;44258;51.288;12.068;2023-04-24T06:28:19;2.67;;;1.30;;
58470;SDS011;44258;51.288;12.068;2023-04-24T06:30:46;4.28;;;1.50;;
58470;SDS011;44258;51.288;12.068;2023-04-24T06:33:14;2.25;;;1.50;;
58470;SDS011;44258;51.288;12.068;2023-04-24T06:35:40;4.80;;;1.27;;
58470;SDS011;44258;51.288;12.068;2023-04-24T06:38:07;3.45;;;1.52;;
58470;SDS011;44258;51.288;12.068;2023-04-24T06:40:34;3.67;;;1.80;;
58470;SDS011;44258;51.288;12.068;2023-04-24T06:43:00;3.30;;;1.70;;
58470;SDS011;44258;51.288;12.068;2023-04-24T06:45:28;2.53;;;1.40;;
58470;SDS011;44258;51.288;12.068;2023-04-24T06:47:55;3.90;;;1.50;;
58470;SDS011;44258;51.288;12.068;2023-04-24T06:50:24;3.58;;;1.40;;
58470;SDS011;44258;51.288;12.068;2023-04-24T06:52:50;3.17;;;1.52;;
58470;SDS011;44258;51.288;12.068;2023-04-24T06:55:17;2.75;;;1.27;;
58470;SDS011;44258;51.288;12.068;2023-04-24T06:57:44;2.67;;;1.40;;
58470;SDS011;44258;51.288;12.068;2023-04-24T07:00:11;2.08;;;1.30;;
58470;SDS011;44258;51.288;12.068;2023-04-24T07:02:39;2.28;;;1.00;;
58470;SDS011;44258;51.288;12.068;2023-04-24T07:05:06;2.50;;;1.30;;
58470;SDS011;44258;51.288;12.068;2023-04-24T07:07:39;3.53;;;1.40;;
58470;SDS011;44258;51.288;12.068;2023-04-24T07:10:06;3.22;;;1.60;;
58470;SDS011;44258;51.288;12.068;2023-04-24T07:12:34;2.67;;;1.17;;
58470;SDS011;44258;51.288;12.068;2023-04-24T07:15:00;4.60;;;1.40;;
58470;SDS011;44258;51.288;12.068;2023-04-24T07:17:28;3.30;;;1.20;;
58470;SDS011;44258;51.288;12.068;2023-04-24T07:19:55;2.03;;;1.08;;
58470;SDS011;44258;51.288;12.068;2023-04-24T07:22:22;2.70;;;1.15;;
58470;SDS011;44258;51.288;12.068;2023-04-24T07:24:51;3.17;;;1.30;;
58470;SDS011;44258;51.288;12.068;2023-04-24T07:27:17;1.58;;;1.00;;
58470;SDS011;44258;51.288;12.068;2023-04-24T07:29:44;3.83;;;1.20;;
58470;SDS011;44258;51.288;12.068;2023-04-24T07:32:10;1.42;;;0.90;;
58470;SDS011;44258;51.288;12.068;2023-04-24T07:34:37;2.28;;;1.10;;
58470;SDS011;44258;51.288;12.068;2023-04-24T07:37:07;3.25;;;1.00;;
58470;SDS011;44258;51.288;12.068;2023-04-24T07:39:34;1.35;;;1.00;;
58470;SDS011;44258;51.288;12.068;2023-04-24T07:42:02;3.40;;;1.02;;
58470;SDS011;44258;51.288;12.068;2023-04-24T07:44:29;2.80;;;0.80;;
58470;SDS011;44258;51.288;12.068;2023-04-24T07:46:57;3.63;;;1.23;;
58470;SDS011;44258;51.288;12.068;2023-04-24T07:49:24;2.92;;;0.95;;
58470;SDS011;44258;51.288;12.068;2023-04-24T07:51:52;2.05;;;0.98;;
58470;SDS011;44258;51.288;12.068;2023-04-24T07:54:19;2.92;;;1.20;;
58470;SDS011;44258;51.288;12.068;2023-04-24T07:56:46;4.32;;;0.80;;
58470;SDS011;44258;51.288;12.068;2023-04-24T07:59:14;2.70;;;1.00;;
58470;SDS011;44258;51.288;12.068;2023-04-24T08:01:41;1.30;;;0.85;;
58470;SDS011;44258;51.288;12.068;2023-04-24T08:04:11;1.85;;;0.63;;
58470;SDS011;44258;51.288;12.068;2023-04-24T08:06:38;0.95;;;0.70;;
58470;SDS011;44258;51.288;12.068;2023-04-24T08:09:04;1.92;;;0.82;;
58470;SDS011;44258;51.288;12.068;2023-04-24T08:11:31;1.77;;;0.90;;
58470;SDS011;44258;51.288;12.068;2023-04-24T08:13:58;0.70;;;0.70;;
58470;SDS011;44258;51.288;12.068;2023-04-24T08:16:26;1.65;;;0.70;;
58470;SDS011;44258;51.288;12.068;2023-04-24T08:18:53;1.65;;;0.80;;
58470;SDS011;44258;51.288;12.068;2023-04-24T08:21:20;1.27;;;0.70;;
58470;SDS011;44258;51.288;12.068;2023-04-24T08:23:47;1.15;;;0.80;;
58470;SDS011;44258;51.288;12.068;2023-04-24T08:26:13;3.20;;;1.00;;
58470;SDS011;44258;51.288;12.068;2023-04-24T08:28:40;1.00;;;0.70;;
58470;SDS011;44258;51.288;12.068;2023-04-24T08:31:07;0.80;;;0.60;;
58470;SDS011;44258;51.288;12.068;2023-04-24T08:33:36;1.50;;;0.80;;
58470;SDS011;44258;51.288;12.068;2023-04-24T08:36:05;2.08;;;1.00;;
58470;SDS011;44258;51.288;12.068;2023-04-24T08:38:32;2.65;;;0.90;;
58470;SDS011;44258;51.288;12.068;2023-04-24T08:40:59;2.88;;;0.95;;
58470;SDS011;44258;51.288;12.068;2023-04-24T08:43:27;3.42;;;1.08;;
58470;SDS011;44258;51.288;12.068;2023-04-24T08:45:55;2.72;;;1.00;;
58470;SDS011;44258;51.288;12.068;2023-04-24T08:48:22;2.25;;;1.10;;
58470;SDS011;44258;51.288;12.068;2023-04-24T08:50:53;1.85;;;1.00;;
58470;SDS011;44258;51.288;12.068;2023-04-24T08:53:20;1.35;;;0.98;;
58470;SDS011;44258;51.288;12.068;2023-04-24T08:55:47;1.27;;;0.90;;
58470;SDS011;44258;51.288;12.068;2023-04-24T08:58:15;2.25;;;1.10;;
58470;SDS011;44258;51.288;12.068;2023-04-24T09:00:46;0.80;;;0.80;;
58470;SDS011;44258;51.288;12.068;2023-04-24T09:03:13;2.63;;;1.20;;
58470;SDS011;44258;51.288;12.068;2023-04-24T09:05:41;4.45;;;1.10;;
58470;SDS011;44258;51.288;12.068;2023-04-24T09:08:12;1.50;;;0.95;;
58470;SDS011;44258;51.288;12.068;2023-04-24T09:10:40;2.58;;;1.10;;
58470;SDS011;44258;51.288;12.068;2023-04-24T09:13:07;1.83;;;0.98;;
58470;SDS011;44258;51.288;12.068;2023-04-24T09:15:35;1.88;;;1.00;;
58470;SDS011;44258;51.288;12.068;2023-04-24T09:18:02;1.88;;;0.90;;
58470;SDS011;44258;51.288;12.068;2023-04-24T09:20:30;2.45;;;1.20;;
58470;SDS011;44258;51.288;12.068;2023-04-24T09:22:57;1.50;;;1.02;;
58470;SDS011;44258;51.288;12.068;2023-04-24T09:25:26;2.72;;;1.00;;
58470;SDS011;44258;51.288;12.068;2023-04-24T09:28:00;2.22;;;1.00;;
58470;SDS011;44258;51.288;12.068;2023-04-24T09:30:28;1.77;;;1.10;;
58470;SDS011;44258;51.288;12.068;2023-04-24T09:35:39;1.85;;;1.15;;
58470;SDS011;44258;51.288;12.068;2023-04-24T09:38:08;2.72;;;1.42;;
58470;SDS011;44258;51.288;12.068;2023-04-24T09:40:36;2.28;;;1.15;;
58470;SDS011;44258;51.288;12.068;2023-04-24T09:43:05;1.83;;;1.10;;
58470;SDS011;44258;51.288;12.068;2023-04-24T09:45:37;1.38;;;1.00;;
58470;SDS011;44258;51.288;12.068;2023-04-24T09:48:04;2.35;;;1.30;;
58470;SDS011;44258;51.288;12.068;2023-04-24T09:50:32;3.08;;;1.23;;
58470;SDS011;44258;51.288;12.068;2023-04-24T09:53:01;2.50;;;1.17;;
58470;SDS011;44258;51.288;12.068;2023-04-24T09:55:30;1.63;;;1.00;;
58470;SDS011;44258;51.288;12.068;2023-04-24T09:57:58;2.53;;;0.85;;
58470;SDS011;44258;51.288;12.068;2023-04-24T10:00:27;1.77;;;1.00;;
58470;SDS011;44258;51.288;12.068;2023-04-24T10:02:55;3.25;;;1.20;;
58470;SDS011;44258;51.288;12.068;2023-04-24T10:05:29;1.35;;;0.98;;
58470;SDS011;44258;51.288;12.068;2023-04-24T10:07:59;1.23;;;1.00;;
58470;SDS011;44258;51.288;12.068;2023-04-24T10:10:28;2.92;;;1.15;;
58470;SDS011;44258;51.288;12.068;2023-04-24T10:12:54;1.75;;;0.95;;
58470;SDS011;44258;51.288;12.068;2023-04-24T10:15:22;2.30;;;1.33;;
58470;SDS011;44258;51.288;12.068;2023-04-24T10:17:50;1.88;;;1.13;;
58470;SDS011;44258;51.288;12.068;2023-04-24T10:20:21;2.03;;;1.10;;
58470;SDS011;44258;51.288;12.068;2023-04-24T10:22:50;3.75;;;1.20;;
58470;SDS011;44258;51.288;12.068;2023-04-24T10:25:18;1.77;;;1.10;;
58470;SDS011;44258;51.288;12.068;2023-04-24T10:27:46;2.47;;;1.17;;
58470;SDS011;44258;51.288;12.068;2023-04-24T10:30:18;1.88;;;1.20;;
58470;SDS011;44258;51.288;12.068;2023-04-24T10:32:46;2.83;;;1.00;;
58470;SDS011;44258;51.288;12.068;2023-04-24T10:35:13;1.80;;;1.10;;
58470;SDS011;44258;51.288;12.068;2023-04-24T10:37:42;1.58;;;1.08;;
58470;SDS011;44258;51.288;12.068;2023-04-24T10:40:16;2.53;;;1.17;;
58470;SDS011;44258;51.288;12.068;2023-04-24T10:42:47;3.78;;;1.30;;
58470;SDS011;44258;51.288;12.068;2023-04-24T10:45:18;2.40;;;1.05;;
58470;SDS011;44258;51.288;12.068;2023-04-24T10:47:54;2.75;;;1.20;;
58470;SDS011;44258;51.288;12.068;2023-04-24T10:50:25;1.98;;;1.23;;
58470;SDS011;44258;51.288;12.068;2023-04-24T10:52:55;3.72;;;1.27;;
58470;SDS011;44258;51.288;12.068;2023-04-24T10:55:42;8.32;;;1.73;;
58470;SDS011;44258;51.288;12.068;2023-04-24T10:58:10;2.67;;;1.30;;
58470;SDS011;44258;51.288;12.068;2023-04-24T11:00:37;4.20;;;1.20;;
58470;SDS011;44258;51.288;12.068;2023-04-24T11:03:09;2.45;;;1.50;;
58470;SDS011;44258;51.288;12.068;2023-04-24T11:05:50;2.53;;;1.27;;
58470;SDS011;44258;51.288;12.068;2023-04-24T11:11:08;2.17;;;1.05;;
58470;SDS011;44258;51.288;12.068;2023-04-24T11:16:37;3.50;;;1.30;;
58470;SDS011;44258;51.288;12.068;2023-04-24T11:19:09;6.45;;;1.50;;
58470;SDS011;44258;51.288;12.068;2023-04-24T11:21:47;3.85;;;1.20;;
58470;SDS011;44258;51.288;12.068;2023-04-24T11:24:21;2.03;;;1.00;;
58470;SDS011;44258;51.288;12.068;2023-04-24T11:27:06;5.80;;;1.35;;
58470;SDS011;44258;51.288;12.068;2023-04-24T11:29:42;1.42;;;1.00;;
58470;SDS011;44258;51.288;12.068;2023-04-24T11:32:14;2.10;;;1.27;;
58470;SDS011;44258;51.288;12.068;2023-04-24T11:34:46;2.17;;;1.38;;
58470;SDS011;44258;51.288;12.068;2023-04-24T11:37:14;2.60;;;1.38;;
58470;SDS011;44258;51.288;12.068;2023-04-24T11:39:41;2.55;;;1.42;;
58470;SDS011;44258;51.288;12.068;2023-04-24T11:42:08;3.13;;;1.42;;
58470;SDS011;44258;51.288;12.068;2023-04-24T11:44:35;2.40;;;1.15;;
58470;SDS011;44258;51.288;12.068;2023-04-24T11:47:02;2.15;;;1.27;;
58470;SDS011;44258;51.288;12.068;2023-04-24T11:49:29;3.00;;;1.50;;
58470;SDS011;44258;51.288;12.068;2023-04-24T11:51:58;2.10;;;1.23;;
58470;SDS011;44258;51.288;12.068;2023-04-24T11:54:26;3.50;;;1.50;;
58470;SDS011;44258;51.288;12.068;2023-04-24T11:56:53;4.07;;;1.60;;
58470;SDS011;44258;51.288;12.068;2023-04-24T11:59:21;5.53;;;1.83;;
58470;SDS011;44258;51.288;12.068;2023-04-24T12:01:47;3.40;;;1.42;;
58470;SDS011;44258;51.288;12.068;2023-04-24T12:04:15;2.40;;;1.50;;
58470;SDS011;44258;51.288;12.068;2023-04-24T12:09:27;3.25;;;1.50;;
58470;SDS011;44258;51.288;12.068;2023-04-24T12:11:54;5.22;;;1.70;;
58470;SDS011;44258;51.288;12.068;2023-04-24T12:14:21;3.00;;;1.48;;
58470;SDS011;44258;51.288;12.068;2023-04-24T12:16:48;2.78;;;1.58;;
58470;SDS011;44258;51.288;12.068;2023-04-24T12:19:17;3.90;;;1.50;;
58470;SDS011;44258;51.288;12.068;2023-04-24T12:21:58;3.08;;;1.58;;
58470;SDS011;44258;51.288;12.068;2023-04-24T12:24:28;4.47;;;1.50;;
58470;SDS011;44258;51.288;12.068;2023-04-24T12:26:55;2.58;;;1.48;;
58470;SDS011;44258;51.288;12.068;2023-04-24T12:29:22;4.32;;;1.45;;
58470;SDS011;44258;51.288;12.068;2023-04-24T12:31:49;2.63;;;1.55;;
58470;SDS011;44258;51.288;12.068;2023-04-24T12:34:18;4.05;;;1.65;;
58470;SDS011;44258;51.288;12.068;2023-04-24T12:36:45;4.32;;;1.55;;
58470;SDS011;44258;51.288;12.068;2023-04-24T12:39:16;3.20;;;1.65;;
58470;SDS011;44258;51.288;12.068;2023-04-24T12:41:54;2.50;;;1.50;;
58470;SDS011;44258;51.288;12.068;2023-04-24T12:44:28;2.60;;;1.50;;
58470;SDS011;44258;51.288;12.068;2023-04-24T12:46:55;3.28;;;1.40;;
58470;SDS011;44258;51.288;12.068;2023-04-24T12:49:22;3.92;;;1.88;;
58470;SDS011;44258;51.288;12.068;2023-04-24T12:51:49;3.38;;;1.58;;
58470;SDS011;44258;51.288;12.068;2023-04-24T12:54:17;5.75;;;1.50;;
58470;SDS011;44258;51.288;12.068;2023-04-24T12:56:44;3.15;;;1.50;;
58470;SDS011;44258;51.288;12.068;2023-04-24T12:59:16;3.75;;;1.52;;
58470;SDS011;44258;51.288;12.068;2023-04-24T13:01:42;2.78;;;1.60;;
58470;SDS011;44258;51.288;12.068;2023-04-24T13:04:09;5.22;;;1.70;;
58470;SDS011;44258;51.288;12.068;2023-04-24T13:06:36;3.30;;;1.67;;
58470;SDS011;44258;51.288;12.068;2023-04-24T13:09:03;2.47;;;1.50;;
58470;SDS011;44258;51.288;12.068;2023-04-24T13:11:31;2.65;;;1.63;;
58470;SDS011;44258;51.288;12.068;2023-04-24T13:13:57;3.17;;;1.70;;
58470;SDS011;44258;51.288;12.068;2023-04-24T13:16:25;1.70;;;1.33;;
58470;SDS011;44258;51.288;12.068;2023-04-24T13:18:52;2.33;;;1.60;;
58470;SDS011;44258;51.288;12.068;2023-04-24T13:21:18;3.50;;;1.55;;
58470;SDS011;44258;51.288;12.068;2023-04-24T13:23:45;2.47;;;1.50;;
58470;SDS011;44258;51.288;12.068;2023-04-24T13:26:12;2.80;;;1.23;;
58470;SDS011;44258;51.288;12.068;2023-04-24T13:28:40;2.50;;;1.50;;
58470;SDS011;44258;51.288;12.068;2023-04-24T13:31:06;2.15;;;1.20;;
58470;SDS011;44258;51.288;12.068;2023-04-24T13:33:35;3.38;;;1.45;;
58470;SDS011;44258;51.288;12.068;2023-04-24T13:36:02;4.35;;;1.50;;
58470;SDS011;44258;51.288;12.068;2023-04-24T13:38:29;2.05;;;1.30;;
58470;SDS011;44258;51.288;12.068;2023-04-24T13:40:56;2.38;;;1.30;;
58470;SDS011;44258;51.288;12.068;2023-04-24T13:43:23;1.40;;;0.82;;
58470;SDS011;44258;51.288;12.068;2023-04-24T13:45:52;2.15;;;1.30;;
58470;SDS011;44258;51.288;12.068;2023-04-24T13:48:18;1.77;;;1.02;;
58470;SDS011;44258;51.288;12.068;2023-04-24T13:50:46;2.83;;;1.15;;
58470;SDS011;44258;51.288;12.068;2023-04-24T13:53:13;1.55;;;1.02;;
58470;SDS011;44258;51.288;12.068;2023-04-24T13:55:40;3.42;;;1.40;;
58470;SDS011;44258;51.288;12.068;2023-04-24T13:58:06;1.88;;;1.25;;
58470;SDS011;44258;51.288;12.068;2023-04-24T14:00:33;2.20;;;1.20;;
58470;SDS011;44258;51.288;12.068;2023-04-24T14:03:02;2.83;;;1.10;;
58470;SDS011;44258;51.288;12.068;2023-04-24T14:05:32;2.95;;;1.20;;
58470;SDS011;44258;51.288;12.068;2023-04-24T14:07:59;3.40;;;1.60;;
58470;SDS011;44258;51.288;12.068;2023-04-24T14:10:26;1.85;;;1.30;;
58470;SDS011;44258;51.288;12.068;2023-04-24T14:12:53;5.10;;;1.40;;
58470;SDS011;44258;51.288;12.068;2023-04-24T14:15:20;0.50;;;0.50;;
58470;SDS011;44258;51.288;12.068;2023-04-24T14:17:47;1.02;;;0.60;;
58470;SDS011;44258;51.288;12.068;2023-04-24T14:20:15;1.52;;;0.63;;
58470;SDS011;44258;51.288;12.068;2023-04-24T14:22:42;4.38;;;0.95;;
58470;SDS011;44258;51.288;12.068;2023-04-24T14:25:09;1.25;;;0.60;;
58470;SDS011;44258;51.288;12.068;2023-04-24T14:27:36;0.63;;;0.40;;
58470;SDS011;44258;51.288;12.068;2023-04-24T14:30:03;2.28;;;0.40;;
58470;SDS011;44258;51.288;12.068;2023-04-24T14:32:30;1.85;;;0.60;;
58470;SDS011;44258;51.288;12.068;2023-04-24T14:34:57;2.45;;;0.80;;
58470;SDS011;44258;51.288;12.068;2023-04-24T14:37:26;2.22;;;0.68;;
58470;SDS011;44258;51.288;12.068;2023-04-24T14:39:53;0.90;;;0.57;;
58470;SDS011;44258;51.288;12.068;2023-04-24T14:42:20;3.65;;;0.70;;
58470;SDS011;44258;51.288;12.068;2023-04-24T14:44:47;2.47;;;0.47;;
58470;SDS011;44258;51.288;12.068;2023-04-24T14:47:14;0.63;;;0.50;;